sensor_id;sensor_type;location;lat;lon;timestamp;temperature;humidity
22917;DHT22;11624;53.250;7.456;2024-03-23T00:52:05;12.74;56.98
22917;DHT22;11624;53.250;7.456;2024-03-23T00:54:31;12.70;57.10
22917;DHT22;11624;53.250;7.456;2024-03-23T00:56:59;12.69;57.23
22917;DHT22;11624;53.250;7.456;2024-03-23T00:59:25;12.65;57.27
22917;DHT22;11624;53.250;7.456;2024-03-23T01:01:54;12.63;57.31
22917;DHT22;11624;53.250;7.456;2024-03-23T01:04:21;12.63;57.25
22917;DHT22;11624;53.250;7.456;2024-03-23T01:06:48;12.59;57.41
22917;DHT22;11624;53.250;7.456;2024-03-23T01:09:16;12.60;57.39
22917;DHT22;11624;53.250;7.456;2024-03-23T01:11:43;12.60;57.36
22917;DHT22;11624;53.250;7.456;2024-03-23T01:14:10;12.60;57.38
22917;DHT22;11624;53.250;7.456;2024-03-23T01:16:37;12.52;57.48
22917;DHT22;11624;53.250;7.456;2024-03-23T01:19:03;12.52;57.49
22917;DHT22;11624;53.250;7.456;2024-03-23T01:21:31;12.52;57.37
22917;DHT22;11624;53.250;7.456;2024-03-23T01:23:58;12.50;57.40
22917;DHT22;11624;53.250;7.456;2024-03-23T01:26:27;12.47;57.32
22917;DHT22;11624;53.250;7.456;2024-03-23T01:28:53;12.44;57.43
22917;DHT22;11624;53.250;7.456;2024-03-23T01:31:21;12.40;57.52
22917;DHT22;11624;53.250;7.456;2024-03-23T01:33:47;12.34;57.64
22917;DHT22;11624;53.250;7.456;2024-03-23T01:36:14;12.30;57.65
22917;DHT22;11624;53.250;7.456;2024-03-23T01:38:41;12.31;57.45
22917;DHT22;11624;53.250;7.456;2024-03-23T01:41:08;12.31;57.40
22917;DHT22;11624;53.250;7.456;2024-03-23T01:43:36;12.25;57.32
22917;DHT22;11624;53.250;7.456;2024-03-23T01:46:03;12.17;57.41
22917;DHT22;11624;53.250;7.456;2024-03-23T01:48:30;12.13;57.53
22917;DHT22;11624;53.250;7.456;2024-03-23T01:50:57;12.10;57.45
22917;DHT22;11624;53.250;7.456;2024-03-23T01:53:25;12.07;57.37
22917;DHT22;11624;53.250;7.456;2024-03-23T01:55:52;12.02;57.46
22917;DHT22;11624;53.250;7.456;2024-03-23T01:58:19;12.01;57.41
22917;DHT22;11624;53.250;7.456;2024-03-23T02:00:48;11.97;57.35
22917;DHT22;11624;53.250;7.456;2024-03-23T02:03:24;11.87;57.12
22917;DHT22;11624;53.250;7.456;2024-03-23T02:05:52;11.84;57.70
22917;DHT22;11624;53.250;7.456;2024-03-23T02:08:21;11.83;57.74
22917;DHT22;11624;53.250;7.456;2024-03-23T02:10:48;11.78;57.89
22917;DHT22;11624;53.250;7.456;2024-03-23T02:13:15;11.74;58.14
22917;DHT22;11624;53.250;7.456;2024-03-23T02:15:43;11.72;58.10
22917;DHT22;11624;53.250;7.456;2024-03-23T02:18:12;11.70;58.13
22917;DHT22;11624;53.250;7.456;2024-03-23T02:20:39;11.68;58.14
22917;DHT22;11624;53.250;7.456;2024-03-23T02:23:13;11.64;57.83
22917;DHT22;11624;53.250;7.456;2024-03-23T02:25:40;11.62;58.37
22917;DHT22;11624;53.250;7.456;2024-03-23T02:28:07;11.61;58.40
22917;DHT22;11624;53.250;7.456;2024-03-23T02:30:34;11.59;58.44
22917;DHT22;11624;53.250;7.456;2024-03-23T02:33:01;11.56;58.46
22917;DHT22;11624;53.250;7.456;2024-03-23T02:35:28;11.55;58.53
22917;DHT22;11624;53.250;7.456;2024-03-23T02:37:55;11.55;58.45
22917;DHT22;11624;53.250;7.456;2024-03-23T02:40:24;11.53;58.30
22917;DHT22;11624;53.250;7.456;2024-03-23T02:42:51;11.47;58.42
22917;DHT22;11624;53.250;7.456;2024-03-23T02:45:19;11.45;58.45
22917;DHT22;11624;53.250;7.456;2024-03-23T02:47:45;11.43;58.38
22917;DHT22;11624;53.250;7.456;2024-03-23T02:50:13;11.38;58.53
22917;DHT22;11624;53.250;7.456;2024-03-23T02:52:41;11.38;58.54
22917;DHT22;11624;53.250;7.456;2024-03-23T02:55:08;11.36;58.48
22917;DHT22;11624;53.250;7.456;2024-03-23T02:57:36;11.33;58.54
22917;DHT22;11624;53.250;7.456;2024-03-23T03:00:05;11.31;58.62
22917;DHT22;11624;53.250;7.456;2024-03-23T03:02:33;11.28;58.72
22917;DHT22;11624;53.250;7.456;2024-03-23T03:05:00;11.29;58.62
22917;DHT22;11624;53.250;7.456;2024-03-23T03:07:27;11.27;58.60
22917;DHT22;11624;53.250;7.456;2024-03-23T03:09:54;11.25;58.66
22917;DHT22;11624;53.250;7.456;2024-03-23T03:12:21;11.18;58.80
22917;DHT22;11624;53.250;7.456;2024-03-23T03:14:49;11.16;58.84
22917;DHT22;11624;53.250;7.456;2024-03-23T03:17:16;11.18;58.87
22917;DHT22;11624;53.250;7.456;2024-03-23T03:19:43;11.17;58.87
22917;DHT22;11624;53.250;7.456;2024-03-23T03:22:10;11.14;58.93
22917;DHT22;11624;53.250;7.456;2024-03-23T03:24:37;11.10;58.99
22917;DHT22;11624;53.250;7.456;2024-03-23T03:27:03;11.08;59.08
22917;DHT22;11624;53.250;7.456;2024-03-23T03:29:32;11.05;59.21
22917;DHT22;11624;53.250;7.456;2024-03-23T03:32:03;11.07;59.00
22917;DHT22;11624;53.250;7.456;2024-03-23T03:34:31;11.01;59.28
22917;DHT22;11624;53.250;7.456;2024-03-23T03:36:57;10.99;59.31
22917;DHT22;11624;53.250;7.456;2024-03-23T03:39:25;11.01;59.51
22917;DHT22;11624;53.250;7.456;2024-03-23T03:41:52;10.97;59.50
22917;DHT22;11624;53.250;7.456;2024-03-23T03:44:19;10.99;59.56
22917;DHT22;11624;53.250;7.456;2024-03-23T03:46:46;10.97;59.48
22917;DHT22;11624;53.250;7.456;2024-03-23T03:49:15;10.98;59.48
22917;DHT22;11624;53.250;7.456;2024-03-23T03:51:41;10.94;59.52
22917;DHT22;11624;53.250;7.456;2024-03-23T03:54:09;10.96;59.48
22917;DHT22;11624;53.250;7.456;2024-03-23T03:56:35;10.92;59.56
22917;DHT22;11624;53.250;7.456;2024-03-23T03:59:02;10.89;59.55
22917;DHT22;11624;53.250;7.456;2024-03-23T04:01:29;10.88;59.61
22917;DHT22;11624;53.250;7.456;2024-03-23T04:03:56;10.87;59.63
22917;DHT22;11624;53.250;7.456;2024-03-23T04:06:24;10.86;59.44
22917;DHT22;11624;53.250;7.456;2024-03-23T04:08:51;10.84;59.54
22917;DHT22;11624;53.250;7.456;2024-03-23T04:11:18;10.82;59.61
22917;DHT22;11624;53.250;7.456;2024-03-23T04:13:45;10.80;59.63
22917;DHT22;11624;53.250;7.456;2024-03-23T04:16:12;10.77;59.64
22917;DHT22;11624;53.250;7.456;2024-03-23T04:18:39;10.75;59.59
22917;DHT22;11624;53.250;7.456;2024-03-23T04:21:06;10.74;59.57
22917;DHT22;11624;53.250;7.456;2024-03-23T04:23:34;10.71;59.51
22917;DHT22;11624;53.250;7.456;2024-03-23T04:26:05;10.73;59.12
22917;DHT22;11624;53.250;7.456;2024-03-23T04:28:32;10.70;59.49
22917;DHT22;11624;53.250;7.456;2024-03-23T04:31:03;10.66;59.32
22917;DHT22;11624;53.250;7.456;2024-03-23T04:33:31;10.65;59.63
22917;DHT22;11624;53.250;7.456;2024-03-23T04:35:57;10.64;59.82
22917;DHT22;11624;53.250;7.456;2024-03-23T04:38:25;10.65;59.72
22917;DHT22;11624;53.250;7.456;2024-03-23T04:40:57;10.60;59.58
22917;DHT22;11624;53.250;7.456;2024-03-23T04:43:25;10.64;59.83
22917;DHT22;11624;53.250;7.456;2024-03-23T04:45:53;10.65;59.74
22917;DHT22;11624;53.250;7.456;2024-03-23T04:48:21;10.65;59.63
22917;DHT22;11624;53.250;7.456;2024-03-23T04:50:49;10.60;59.62
22917;DHT22;11624;53.250;7.456;2024-03-23T04:53:17;10.59;59.53
22917;DHT22;11624;53.250;7.456;2024-03-23T04:55:44;10.57;59.51
22917;DHT22;11624;53.250;7.456;2024-03-23T04:58:13;10.55;59.50
22917;DHT22;11624;53.250;7.456;2024-03-23T05:00:39;10.54;59.54
22917;DHT22;11624;53.250;7.456;2024-03-23T05:03:07;10.51;59.59
22917;DHT22;11624;53.250;7.456;2024-03-23T05:05:34;10.46;59.56
22917;DHT22;11624;53.250;7.456;2024-03-23T05:08:00;10.50;59.44
22917;DHT22;11624;53.250;7.456;2024-03-23T05:10:28;10.45;59.49
22917;DHT22;11624;53.250;7.456;2024-03-23T05:12:55;10.42;59.55
22917;DHT22;11624;53.250;7.456;2024-03-23T05:15:23;10.42;59.49
22917;DHT22;11624;53.250;7.456;2024-03-23T05:17:50;10.38;59.49
22917;DHT22;11624;53.250;7.456;2024-03-23T05:20:17;10.37;59.69
22917;DHT22;11624;53.250;7.456;2024-03-23T05:22:45;10.37;59.65
22917;DHT22;11624;53.250;7.456;2024-03-23T05:25:12;10.36;59.78
22917;DHT22;11624;53.250;7.456;2024-03-23T05:27:39;10.35;59.84
22917;DHT22;11624;53.250;7.456;2024-03-23T05:30:07;10.35;59.80
22917;DHT22;11624;53.250;7.456;2024-03-23T05:32:36;10.33;59.73
22917;DHT22;11624;53.250;7.456;2024-03-23T05:35:06;10.31;59.98
22917;DHT22;11624;53.250;7.456;2024-03-23T05:37:34;10.31;59.96
22917;DHT22;11624;53.250;7.456;2024-03-23T05:40:01;10.29;60.00
22917;DHT22;11624;53.250;7.456;2024-03-23T05:42:29;10.33;59.92
22917;DHT22;11624;53.250;7.456;2024-03-23T05:44:57;10.31;60.05
22917;DHT22;11624;53.250;7.456;2024-03-23T05:47:24;10.38;59.94
22917;DHT22;11624;53.250;7.456;2024-03-23T05:49:52;10.34;60.06
22917;DHT22;11624;53.250;7.456;2024-03-23T05:52:19;10.33;60.18
22917;DHT22;11624;53.250;7.456;2024-03-23T05:54:48;10.39;60.08
22917;DHT22;11624;53.250;7.456;2024-03-23T05:57:14;10.41;60.14
22917;DHT22;11624;53.250;7.456;2024-03-23T05:59:42;10.49;60.12
22917;DHT22;11624;53.250;7.456;2024-03-23T06:02:09;10.55;60.22
22917;DHT22;11624;53.250;7.456;2024-03-23T06:04:37;10.62;60.19
22917;DHT22;11624;53.250;7.456;2024-03-23T06:07:05;10.68;60.06
22917;DHT22;11624;53.250;7.456;2024-03-23T06:09:35;10.69;60.02
22917;DHT22;11624;53.250;7.456;2024-03-23T06:12:02;10.77;59.86
22917;DHT22;11624;53.250;7.456;2024-03-23T06:14:30;10.77;59.85
22917;DHT22;11624;53.250;7.456;2024-03-23T06:16:56;10.77;59.88
22917;DHT22;11624;53.250;7.456;2024-03-23T06:19:23;10.85;59.77
22917;DHT22;11624;53.250;7.456;2024-03-23T06:21:53;10.87;59.81
22917;DHT22;11624;53.250;7.456;2024-03-23T06:24:22;10.90;59.70
22917;DHT22;11624;53.250;7.456;2024-03-23T06:26:48;10.96;59.82
22917;DHT22;11624;53.250;7.456;2024-03-23T06:29:16;11.05;59.70
22917;DHT22;11624;53.250;7.456;2024-03-23T06:31:42;11.10;59.66
22917;DHT22;11624;53.250;7.456;2024-03-23T06:34:09;11.15;59.77
22917;DHT22;11624;53.250;7.456;2024-03-23T06:36:36;11.22;59.77
22917;DHT22;11624;53.250;7.456;2024-03-23T06:39:04;11.28;59.51
22917;DHT22;11624;53.250;7.456;2024-03-23T06:41:32;11.30;59.39
22917;DHT22;11624;53.250;7.456;2024-03-23T06:44:01;11.33;59.35
22917;DHT22;11624;53.250;7.456;2024-03-23T06:46:28;11.41;59.29
22917;DHT22;11624;53.250;7.456;2024-03-23T06:48:55;11.48;59.10
22917;DHT22;11624;53.250;7.456;2024-03-23T06:51:22;11.52;59.07
22917;DHT22;11624;53.250;7.456;2024-03-23T06:53:49;11.58;58.91
22917;DHT22;11624;53.250;7.456;2024-03-23T06:56:17;11.64;58.99
22917;DHT22;11624;53.250;7.456;2024-03-23T06:58:45;11.74;58.70
22917;DHT22;11624;53.250;7.456;2024-03-23T07:01:12;11.82;58.44
22917;DHT22;11624;53.250;7.456;2024-03-23T07:03:38;11.84;58.45
22917;DHT22;11624;53.250;7.456;2024-03-23T07:06:06;11.89;58.39
22917;DHT22;11624;53.250;7.456;2024-03-23T07:08:32;12.04;58.19
22917;DHT22;11624;53.250;7.456;2024-03-23T07:11:00;12.12;58.30
22917;DHT22;11624;53.250;7.456;2024-03-23T07:13:26;12.16;58.14
22917;DHT22;11624;53.250;7.456;2024-03-23T07:15:55;12.23;58.00
22917;DHT22;11624;53.250;7.456;2024-03-23T07:18:23;12.35;57.92
22917;DHT22;11624;53.250;7.456;2024-03-23T07:20:54;12.45;56.91
22917;DHT22;11624;53.250;7.456;2024-03-23T07:23:20;12.57;57.30
22917;DHT22;11624;53.250;7.456;2024-03-23T07:25:56;12.82;56.57
22917;DHT22;11624;53.250;7.456;2024-03-23T07:28:23;13.14;56.64
22917;DHT22;11624;53.250;7.456;2024-03-23T07:31:02;13.33;55.01
22917;DHT22;11624;53.250;7.456;2024-03-23T07:33:29;13.44;55.04
22917;DHT22;11624;53.250;7.456;2024-03-23T07:35:56;13.55;54.33
22917;DHT22;11624;53.250;7.456;2024-03-23T07:38:23;13.74;53.04
22917;DHT22;11624;53.250;7.456;2024-03-23T07:40:51;13.70;52.17
22917;DHT22;11624;53.250;7.456;2024-03-23T07:43:21;13.70;51.86
22917;DHT22;11624;53.250;7.456;2024-03-23T07:45:52;13.69;51.04
22917;DHT22;11624;53.250;7.456;2024-03-23T07:48:21;13.61;50.46
22917;DHT22;11624;53.250;7.456;2024-03-23T07:50:57;13.60;51.02
22917;DHT22;11624;53.250;7.456;2024-03-23T07:53:23;13.81;50.51
22917;DHT22;11624;53.250;7.456;2024-03-23T07:55:55;13.96;49.31
22917;DHT22;11624;53.250;7.456;2024-03-23T07:58:22;13.90;49.18
22917;DHT22;11624;53.250;7.456;2024-03-23T08:00:49;13.83;49.06
22917;DHT22;11624;53.250;7.456;2024-03-23T08:03:15;13.80;48.85
22917;DHT22;11624;53.250;7.456;2024-03-23T08:05:44;13.82;48.99
22917;DHT22;11624;53.250;7.456;2024-03-23T08:08:11;14.11;48.66
22917;DHT22;11624;53.250;7.456;2024-03-23T08:10:47;14.53;48.06
22917;DHT22;11624;53.250;7.456;2024-03-23T08:13:13;14.82;47.65
22917;DHT22;11624;53.250;7.456;2024-03-23T08:15:41;14.86;47.11
22917;DHT22;11624;53.250;7.456;2024-03-23T08:18:07;14.84;46.31
22917;DHT22;11624;53.250;7.456;2024-03-23T08:20:35;14.84;46.09
22917;DHT22;11624;53.250;7.456;2024-03-23T08:23:03;15.12;46.93
22917;DHT22;11624;53.250;7.456;2024-03-23T08:25:31;15.38;46.31
22917;DHT22;11624;53.250;7.456;2024-03-23T08:27:57;15.56;45.14
22917;DHT22;11624;53.250;7.456;2024-03-23T08:30:25;15.59;44.22
22917;DHT22;11624;53.250;7.456;2024-03-23T08:32:52;15.46;44.23
22917;DHT22;11624;53.250;7.456;2024-03-23T08:35:19;15.48;45.38
22917;DHT22;11624;53.250;7.456;2024-03-23T08:37:46;15.57;45.19
22917;DHT22;11624;53.250;7.456;2024-03-23T08:40:15;15.57;45.16
22917;DHT22;11624;53.250;7.456;2024-03-23T08:42:41;15.47;45.96
22917;DHT22;11624;53.250;7.456;2024-03-23T08:45:09;15.57;46.55
22917;DHT22;11624;53.250;7.456;2024-03-23T08:47:35;15.51;46.76
22917;DHT22;11624;53.250;7.456;2024-03-23T08:50:03;15.58;46.45
22917;DHT22;11624;53.250;7.456;2024-03-23T08:52:29;15.68;45.76
22917;DHT22;11624;53.250;7.456;2024-03-23T08:54:57;15.72;45.55
22917;DHT22;11624;53.250;7.456;2024-03-23T08:57:25;15.81;45.42
22917;DHT22;11624;53.250;7.456;2024-03-23T08:59:52;15.93;44.35
22917;DHT22;11624;53.250;7.456;2024-03-23T09:02:19;16.01;44.35
22917;DHT22;11624;53.250;7.456;2024-03-23T09:04:46;16.14;43.91
22917;DHT22;11624;53.250;7.456;2024-03-23T09:07:12;16.41;43.69
22917;DHT22;11624;53.250;7.456;2024-03-23T09:09:40;16.70;43.26
22917;DHT22;11624;53.250;7.456;2024-03-23T09:12:07;17.06;42.80
22917;DHT22;11624;53.250;7.456;2024-03-23T09:14:35;17.34;41.13
22917;DHT22;11624;53.250;7.456;2024-03-23T09:17:02;17.20;39.81
22917;DHT22;11624;53.250;7.456;2024-03-23T09:19:31;16.81;40.20
22917;DHT22;11624;53.250;7.456;2024-03-23T09:21:57;16.64;41.48
22917;DHT22;11624;53.250;7.456;2024-03-23T09:24:25;16.34;41.99
22917;DHT22;11624;53.250;7.456;2024-03-23T09:26:51;16.37;42.58
22917;DHT22;11624;53.250;7.456;2024-03-23T09:29:19;16.57;41.96
22917;DHT22;11624;53.250;7.456;2024-03-23T09:31:47;16.35;41.97
22917;DHT22;11624;53.250;7.456;2024-03-23T09:34:14;16.39;42.23
22917;DHT22;11624;53.250;7.456;2024-03-23T09:36:41;16.62;41.50
22917;DHT22;11624;53.250;7.456;2024-03-23T09:39:08;16.94;42.22
22917;DHT22;11624;53.250;7.456;2024-03-23T09:41:35;17.41;41.70
22917;DHT22;11624;53.250;7.456;2024-03-23T09:44:05;17.64;40.24
22917;DHT22;11624;53.250;7.456;2024-03-23T09:46:31;17.84;39.85
22917;DHT22;11624;53.250;7.456;2024-03-23T09:49:03;18.34;40.26
22917;DHT22;11624;53.250;7.456;2024-03-23T09:51:31;18.49;37.79
22917;DHT22;11624;53.250;7.456;2024-03-23T09:53:58;18.41;38.00
22917;DHT22;11624;53.250;7.456;2024-03-23T09:56:25;18.47;36.56
22917;DHT22;11624;53.250;7.456;2024-03-23T09:59:00;18.35;36.45
22917;DHT22;11624;53.250;7.456;2024-03-23T10:01:26;18.58;36.07
22917;DHT22;11624;53.250;7.456;2024-03-23T10:03:54;18.71;36.08
22917;DHT22;11624;53.250;7.456;2024-03-23T10:06:23;18.77;35.54
22917;DHT22;11624;53.250;7.456;2024-03-23T10:08:52;18.87;35.94
22917;DHT22;11624;53.250;7.456;2024-03-23T10:11:19;18.59;34.52
22917;DHT22;11624;53.250;7.456;2024-03-23T10:13:47;18.63;35.67
22917;DHT22;11624;53.250;7.456;2024-03-23T10:16:21;18.57;34.76
22917;DHT22;11624;53.250;7.456;2024-03-23T10:18:49;18.26;35.51
22917;DHT22;11624;53.250;7.456;2024-03-23T10:21:16;18.69;35.42
22917;DHT22;11624;53.250;7.456;2024-03-23T10:23:45;19.03;35.77
22917;DHT22;11624;53.250;7.456;2024-03-23T10:26:13;19.30;33.59
22917;DHT22;11624;53.250;7.456;2024-03-23T10:28:55;18.66;33.52
22917;DHT22;11624;53.250;7.456;2024-03-23T10:31:24;18.23;34.50
22917;DHT22;11624;53.250;7.456;2024-03-23T10:33:51;17.74;37.04
22917;DHT22;11624;53.250;7.456;2024-03-23T10:36:21;18.17;38.96
22917;DHT22;11624;53.250;7.456;2024-03-23T10:38:50;18.17;36.30
22917;DHT22;11624;53.250;7.456;2024-03-23T10:41:17;17.66;36.71
22917;DHT22;11624;53.250;7.456;2024-03-23T10:43:46;16.71;39.15
22917;DHT22;11624;53.250;7.456;2024-03-23T10:46:13;16.00;40.37
22917;DHT22;11624;53.250;7.456;2024-03-23T10:48:40;15.36;41.65
22917;DHT22;11624;53.250;7.456;2024-03-23T10:51:07;14.89;42.40
22917;DHT22;11624;53.250;7.456;2024-03-23T10:53:35;14.58;42.59
22917;DHT22;11624;53.250;7.456;2024-03-23T10:56:05;14.41;42.65
22917;DHT22;11624;53.250;7.456;2024-03-23T10:58:37;14.37;43.03
22917;DHT22;11624;53.250;7.456;2024-03-23T11:01:04;14.51;42.82
22917;DHT22;11624;53.250;7.456;2024-03-23T11:03:33;14.67;43.10
22917;DHT22;11624;53.250;7.456;2024-03-23T11:05:59;14.82;42.65
22917;DHT22;11624;53.250;7.456;2024-03-23T11:08:31;14.84;42.31
22917;DHT22;11624;53.250;7.456;2024-03-23T11:11:17;14.78;42.61
22917;DHT22;11624;53.250;7.456;2024-03-23T11:13:47;14.93;44.24
22917;DHT22;11624;53.250;7.456;2024-03-23T11:16:14;15.46;42.97
22917;DHT22;11624;53.250;7.456;2024-03-23T11:18:42;15.70;41.49
22917;DHT22;11624;53.250;7.456;2024-03-23T11:21:10;15.86;40.70
22917;DHT22;11624;53.250;7.456;2024-03-23T11:23:37;15.85;40.67
22917;DHT22;11624;53.250;7.456;2024-03-23T11:26:07;16.18;41.09
22917;DHT22;11624;53.250;7.456;2024-03-23T11:28:36;17.06;40.22
22917;DHT22;11624;53.250;7.456;2024-03-23T11:31:09;17.44;37.48
22917;DHT22;11624;53.250;7.456;2024-03-23T11:33:37;17.23;37.67
22917;DHT22;11624;53.250;7.456;2024-03-23T11:36:05;17.08;38.79
22917;DHT22;11624;53.250;7.456;2024-03-23T11:38:36;16.81;37.98
22917;DHT22;11624;53.250;7.456;2024-03-23T11:41:03;16.56;38.82
22917;DHT22;11624;53.250;7.456;2024-03-23T11:43:31;15.97;40.04
22917;DHT22;11624;53.250;7.456;2024-03-23T11:45:59;15.16;40.49
22917;DHT22;11624;53.250;7.456;2024-03-23T11:48:29;14.10;42.47
22917;DHT22;11624;53.250;7.456;2024-03-23T11:50:57;13.63;44.41
22917;DHT22;11624;53.250;7.456;2024-03-23T11:53:25;13.41;45.79
22917;DHT22;11624;53.250;7.456;2024-03-23T11:55:55;13.38;47.15
22917;DHT22;11624;53.250;7.456;2024-03-23T11:58:23;13.40;48.15
22917;DHT22;11624;53.250;7.456;2024-03-23T12:00:50;13.58;48.63
22917;DHT22;11624;53.250;7.456;2024-03-23T12:03:20;13.61;48.57
22917;DHT22;11624;53.250;7.456;2024-03-23T12:05:49;13.64;49.12
22917;DHT22;11624;53.250;7.456;2024-03-23T12:08:23;13.47;48.54
22917;DHT22;11624;53.250;7.456;2024-03-23T12:10:51;13.27;48.57
22917;DHT22;11624;53.250;7.456;2024-03-23T12:13:20;13.09;49.42
22917;DHT22;11624;53.250;7.456;2024-03-23T12:15:47;12.94;50.44
22917;DHT22;11624;53.250;7.456;2024-03-23T12:18:15;13.02;51.56
22917;DHT22;11624;53.250;7.456;2024-03-23T12:20:43;13.07;52.00
22917;DHT22;11624;53.250;7.456;2024-03-23T12:23:11;13.26;50.66
22917;DHT22;11624;53.250;7.456;2024-03-23T12:25:41;13.38;50.42
22917;DHT22;11624;53.250;7.456;2024-03-23T12:28:09;13.62;50.82
22917;DHT22;11624;53.250;7.456;2024-03-23T12:30:36;14.05;50.88
22917;DHT22;11624;53.250;7.456;2024-03-23T12:33:05;14.80;50.24
22917;DHT22;11624;53.250;7.456;2024-03-23T12:35:32;15.56;48.64
22917;DHT22;11624;53.250;7.456;2024-03-23T12:38:01;16.30;46.12
22917;DHT22;11624;53.250;7.456;2024-03-23T12:40:27;17.13;45.65
22917;DHT22;11624;53.250;7.456;2024-03-23T12:42:55;17.46;42.21
22917;DHT22;11624;53.250;7.456;2024-03-23T12:45:22;17.79;42.39
22917;DHT22;11624;53.250;7.456;2024-03-23T12:47:49;18.09;39.65
22917;DHT22;11624;53.250;7.456;2024-03-23T12:50:18;18.26;39.40
22917;DHT22;11624;53.250;7.456;2024-03-23T12:52:45;18.40;38.61
22917;DHT22;11624;53.250;7.456;2024-03-23T12:55:13;18.66;37.19
22917;DHT22;11624;53.250;7.456;2024-03-23T12:57:40;18.24;36.95
22917;DHT22;11624;53.250;7.456;2024-03-23T13:00:08;17.69;37.52
22917;DHT22;11624;53.250;7.456;2024-03-23T13:02:37;17.24;38.79
22917;DHT22;11624;53.250;7.456;2024-03-23T13:05:06;16.71;40.34
22917;DHT22;11624;53.250;7.456;2024-03-23T13:07:34;16.35;41.29
22917;DHT22;11624;53.250;7.456;2024-03-23T13:10:04;16.28;41.79
22917;DHT22;11624;53.250;7.456;2024-03-23T13:12:32;16.08;40.50
22917;DHT22;11624;53.250;7.456;2024-03-23T13:15:00;15.81;41.15
22917;DHT22;11624;53.250;7.456;2024-03-23T13:17:26;15.60;42.23
22917;DHT22;11624;53.250;7.456;2024-03-23T13:19:54;15.71;43.55
22917;DHT22;11624;53.250;7.456;2024-03-23T13:22:21;16.52;40.16
22917;DHT22;11624;53.250;7.456;2024-03-23T13:24:49;16.72;38.24
22917;DHT22;11624;53.250;7.456;2024-03-23T13:27:16;17.06;37.80
22917;DHT22;11624;53.250;7.456;2024-03-23T13:29:44;17.39;36.44
22917;DHT22;11624;53.250;7.456;2024-03-23T13:32:13;17.11;36.73
22917;DHT22;11624;53.250;7.456;2024-03-23T13:34:40;17.04;37.66
22917;DHT22;11624;53.250;7.456;2024-03-23T13:37:07;17.19;38.14
22917;DHT22;11624;53.250;7.456;2024-03-23T13:39:35;17.63;38.16
22917;DHT22;11624;53.250;7.456;2024-03-23T13:42:02;17.64;37.69
22917;DHT22;11624;53.250;7.456;2024-03-23T13:44:30;17.75;37.52
22917;DHT22;11624;53.250;7.456;2024-03-23T13:46:58;17.74;37.56
22917;DHT22;11624;53.250;7.456;2024-03-23T13:49:26;17.52;37.46
22917;DHT22;11624;53.250;7.456;2024-03-23T13:51:54;16.96;38.02
22917;DHT22;11624;53.250;7.456;2024-03-23T13:54:21;16.51;38.83
22917;DHT22;11624;53.250;7.456;2024-03-23T13:56:49;16.34;39.94
22917;DHT22;11624;53.250;7.456;2024-03-23T13:59:16;16.22;40.63
22917;DHT22;11624;53.250;7.456;2024-03-23T14:01:43;16.31;40.67
22917;DHT22;11624;53.250;7.456;2024-03-23T14:04:13;16.90;39.46
22917;DHT22;11624;53.250;7.456;2024-03-23T14:06:39;17.45;38.65
22917;DHT22;11624;53.250;7.456;2024-03-23T14:09:07;17.80;37.86
22917;DHT22;11624;53.250;7.456;2024-03-23T14:11:35;17.62;37.25
22917;DHT22;11624;53.250;7.456;2024-03-23T14:14:03;17.21;38.71
22917;DHT22;11624;53.250;7.456;2024-03-23T14:16:30;17.09;38.78
22917;DHT22;11624;53.250;7.456;2024-03-23T14:18:57;17.21;38.41
22917;DHT22;11624;53.250;7.456;2024-03-23T14:21:25;17.11;38.47
22917;DHT22;11624;53.250;7.456;2024-03-23T14:23:52;17.25;39.27
22917;DHT22;11624;53.250;7.456;2024-03-23T14:26:19;17.99;37.69
22917;DHT22;11624;53.250;7.456;2024-03-23T14:28:47;18.28;36.61
22917;DHT22;11624;53.250;7.456;2024-03-23T14:31:13;18.29;35.02
22917;DHT22;11624;53.250;7.456;2024-03-23T14:33:41;17.59;35.34
22917;DHT22;11624;53.250;7.456;2024-03-23T14:36:12;17.07;37.33
22917;DHT22;11624;53.250;7.456;2024-03-23T14:38:41;17.15;38.49
22917;DHT22;11624;53.250;7.456;2024-03-23T14:41:08;17.30;40.51
22917;DHT22;11624;53.250;7.456;2024-03-23T14:43:35;17.23;39.44
22917;DHT22;11624;53.250;7.456;2024-03-23T14:46:09;17.32;37.77
22917;DHT22;11624;53.250;7.456;2024-03-23T14:48:37;17.29;38.52
22917;DHT22;11624;53.250;7.456;2024-03-23T14:51:04;17.31;37.53
22917;DHT22;11624;53.250;7.456;2024-03-23T14:53:32;16.91;37.31
22917;DHT22;11624;53.250;7.456;2024-03-23T14:56:01;16.41;38.10
22917;DHT22;11624;53.250;7.456;2024-03-23T14:58:29;16.10;38.69
22917;DHT22;11624;53.250;7.456;2024-03-23T15:01:00;15.93;38.59
22917;DHT22;11624;53.250;7.456;2024-03-23T15:03:28;15.81;39.40
22917;DHT22;11624;53.250;7.456;2024-03-23T15:05:55;15.80;39.33
22917;DHT22;11624;53.250;7.456;2024-03-23T15:08:22;15.85;39.87
22917;DHT22;11624;53.250;7.456;2024-03-23T15:10:49;15.90;39.61
22917;DHT22;11624;53.250;7.456;2024-03-23T15:13:18;16.10;39.27
22917;DHT22;11624;53.250;7.456;2024-03-23T15:15:48;16.40;37.48
22917;DHT22;11624;53.250;7.456;2024-03-23T15:18:15;16.58;37.75
22917;DHT22;11624;53.250;7.456;2024-03-23T15:20:54;16.67;37.76
22917;DHT22;11624;53.250;7.456;2024-03-23T15:23:21;16.74;37.71
22917;DHT22;11624;53.250;7.456;2024-03-23T15:25:54;16.98;38.10
22917;DHT22;11624;53.250;7.456;2024-03-23T15:28:22;17.14;36.85
22917;DHT22;11624;53.250;7.456;2024-03-23T15:30:50;17.02;36.27
22917;DHT22;11624;53.250;7.456;2024-03-23T15:33:16;16.85;36.82
22917;DHT22;11624;53.250;7.456;2024-03-23T15:35:43;16.98;36.60
22917;DHT22;11624;53.250;7.456;2024-03-23T15:38:10;17.13;36.62
22917;DHT22;11624;53.250;7.456;2024-03-23T15:40:37;17.04;36.33
22917;DHT22;11624;53.250;7.456;2024-03-23T15:43:04;16.84;36.97
22917;DHT22;11624;53.250;7.456;2024-03-23T15:45:33;16.59;36.87
22917;DHT22;11624;53.250;7.456;2024-03-23T15:47:59;16.31;37.53
22917;DHT22;11624;53.250;7.456;2024-03-23T15:50:26;16.05;38.20
22917;DHT22;11624;53.250;7.456;2024-03-23T15:52:53;15.74;38.80
22917;DHT22;11624;53.250;7.456;2024-03-23T15:55:21;15.49;39.23
22917;DHT22;11624;53.250;7.456;2024-03-23T15:57:48;15.45;39.74
22917;DHT22;11624;53.250;7.456;2024-03-23T16:00:16;15.30;40.12
22917;DHT22;11624;53.250;7.456;2024-03-23T16:02:44;15.21;40.55
22917;DHT22;11624;53.250;7.456;2024-03-23T16:05:12;15.11;41.10
22917;DHT22;11624;53.250;7.456;2024-03-23T16:07:39;15.03;40.79
22917;DHT22;11624;53.250;7.456;2024-03-23T16:10:07;15.22;41.00
22917;DHT22;11624;53.250;7.456;2024-03-23T16:12:35;15.62;40.91
22917;DHT22;11624;53.250;7.456;2024-03-23T16:15:03;15.95;39.94
22917;DHT22;11624;53.250;7.456;2024-03-23T16:17:31;16.24;39.19
22917;DHT22;11624;53.250;7.456;2024-03-23T16:20:04;16.24;38.97
22917;DHT22;11624;53.250;7.456;2024-03-23T16:22:34;16.27;39.36
22917;DHT22;11624;53.250;7.456;2024-03-23T16:25:02;16.24;39.14